createdAt,value
2022-08-10T00:00:26.053Z,1.50
2022-08-10T00:01:26.069Z,1.40
2022-08-10T00:02:26.030Z,1.40
2022-08-10T00:03:26.041Z,1.50
2022-08-10T00:04:26.025Z,1.40
2022-08-10T00:05:26.002Z,1.40
2022-08-10T00:06:25.973Z,1.30
2022-08-10T00:07:25.999Z,1.30
2022-08-10T00:08:25.953Z,1.50
2022-08-10T00:09:25.967Z,1.20
2022-08-10T00:10:25.951Z,1.40
2022-08-10T00:11:25.935Z,1.40
2022-08-10T00:12:53.273Z,1.60
2022-08-10T00:13:26.916Z,1.30
2022-08-10T00:14:25.893Z,1.40
2022-08-10T00:15:51.842Z,1.60
2022-08-10T00:16:26.855Z,1.50
2022-08-10T00:17:25.874Z,1.30
2022-08-10T00:18:34.953Z,1.50
2022-08-10T00:19:26.844Z,1.50
2022-08-10T00:20:26.803Z,1.50
2022-08-10T00:21:27.232Z,1.50
2022-08-10T00:22:25.786Z,1.30
2022-08-10T00:23:25.792Z,1.30
2022-08-10T00:24:25.758Z,1.60
2022-08-10T00:25:25.750Z,1.70
2022-08-10T00:26:25.731Z,1.60
2022-08-10T00:27:52.687Z,1.30
2022-08-10T00:28:26.729Z,1.50
2022-08-10T00:29:25.715Z,1.40
2022-08-10T00:30:25.699Z,1.40
2022-08-10T00:31:25.708Z,1.40
2022-08-10T00:32:25.669Z,1.30
2022-08-10T00:33:25.661Z,1.30
2022-08-10T00:34:25.679Z,1.60
2022-08-10T00:35:25.641Z,1.40
2022-08-10T00:36:25.626Z,1.50
2022-08-10T00:37:25.604Z,1.40
2022-08-10T00:38:25.601Z,1.40
2022-08-10T00:39:26.030Z,1.30
2022-08-10T00:40:35.166Z,1.30
2022-08-10T00:41:26.570Z,1.40
2022-08-10T00:42:25.556Z,1.40
2022-08-10T00:43:25.560Z,1.40
2022-08-10T00:44:25.530Z,1.50
2022-08-10T00:45:25.666Z,1.40
2022-08-10T00:46:25.506Z,1.30
2022-08-10T00:47:36.747Z,1.50
2022-08-10T00:48:28.103Z,1.50
2022-08-10T00:49:25.470Z,1.40
2022-08-10T00:50:25.474Z,1.30
2022-08-10T00:51:40.479Z,1.40
2022-08-10T00:52:26.466Z,1.40
2022-08-10T00:53:26.213Z,1.40
2022-08-10T00:54:25.400Z,1.40
2022-08-10T00:55:25.412Z,1.50
2022-08-10T00:57:14.948Z,1.40
2022-08-10T00:57:26.382Z,1.40
2022-08-10T00:58:25.362Z,1.40
2022-08-10T00:59:25.354Z,1.40
2022-08-10T01:00:25.369Z,1.50
2022-08-10T01:02:09.964Z,1.40
2022-08-10T01:02:26.372Z,1.40
2022-08-10T01:04:54.598Z,1.50
2022-08-10T01:04:54.599Z,1.30
2022-08-10T01:05:26.299Z,1.30
2022-08-10T01:06:25.273Z,1.30
2022-08-10T01:07:25.255Z,1.40
2022-08-10T01:08:25.242Z,1.40
2022-08-10T01:09:25.244Z,1.40
2022-08-10T01:10:25.257Z,1.40
2022-08-10T01:12:34.271Z,1.40
2022-08-10T01:12:37.658Z,1.40
2022-08-10T01:13:26.199Z,1.30
2022-08-10T01:14:25.164Z,1.50
2022-08-10T01:15:25.172Z,1.20
2022-08-10T01:16:25.167Z,1.30
2022-08-10T01:17:25.147Z,1.20
2022-08-10T01:18:26.130Z,1.60
2022-08-10T01:19:25.117Z,1.40
2022-08-10T01:20:27.631Z,1.40
2022-08-10T01:21:26.124Z,1.40
2022-08-10T01:22:25.085Z,1.60
2022-08-10T01:23:25.069Z,1.40
2022-08-10T01:24:25.222Z,1.40
2022-08-10T01:25:25.056Z,1.50
2022-08-10T01:26:30.782Z,1.50
2022-08-10T01:27:27.105Z,1.50
2022-08-10T01:28:25.008Z,1.50
2022-08-10T01:29:25.002Z,1.40
2022-08-10T01:30:24.979Z,1.40
2022-08-10T01:31:24.977Z,1.40
2022-08-10T01:32:24.960Z,1.50
2022-08-10T01:33:57.822Z,1.40
2022-08-10T01:34:25.930Z,1.50
2022-08-10T01:35:24.932Z,1.70
2022-08-10T01:36:32.062Z,1.50
2022-08-10T01:37:25.900Z,1.40
2022-08-10T01:38:24.929Z,1.50
2022-08-10T01:39:24.941Z,1.60
2022-08-10T01:40:24.860Z,1.50
2022-08-10T01:41:24.853Z,1.40
2022-08-10T01:42:24.841Z,1.40
2022-08-10T01:43:24.848Z,1.40
2022-08-10T01:44:24.844Z,1.40
2022-08-10T01:45:24.809Z,1.50
2022-08-10T01:46:24.805Z,1.60
2022-08-10T01:47:24.788Z,1.40
2022-08-10T01:48:24.778Z,1.50
2022-08-10T01:49:24.781Z,1.40
2022-08-10T01:50:24.792Z,1.60
2022-08-10T01:51:24.739Z,1.50
2022-08-10T01:52:24.739Z,1.50
2022-08-10T01:53:24.709Z,1.50
2022-08-10T01:54:24.725Z,1.60
2022-08-10T01:55:24.695Z,1.60
2022-08-10T01:56:24.684Z,1.30
2022-08-10T01:57:24.671Z,1.30
2022-08-10T01:58:24.651Z,1.40
2022-08-10T01:59:24.674Z,1.60
2022-08-10T02:00:24.633Z,1.40
2022-08-10T02:01:24.659Z,1.30
2022-08-10T02:02:24.604Z,1.30
2022-08-10T02:03:24.598Z,1.50
2022-08-10T02:04:24.617Z,1.40
2022-08-10T02:05:24.582Z,1.50
2022-08-10T02:06:24.589Z,1.50
2022-08-10T02:07:24.567Z,1.60
2022-08-10T02:08:24.536Z,1.40
2022-08-10T02:09:24.554Z,1.60
2022-08-10T02:10:24.532Z,1.70
2022-08-10T02:11:24.510Z,1.60
2022-08-10T02:12:24.497Z,1.70
2022-08-10T02:13:24.468Z,1.50
2022-08-10T02:14:24.478Z,1.30
2022-08-10T02:15:24.478Z,1.40
2022-08-10T02:16:24.452Z,1.50
2022-08-10T02:18:00.781Z,1.60
2022-08-10T02:18:25.427Z,1.40
2022-08-10T02:19:24.408Z,1.60
2022-08-10T02:20:24.422Z,1.50
2022-08-10T02:21:24.386Z,1.70
2022-08-10T02:22:38.273Z,1.60
2022-08-10T02:23:25.373Z,1.60
2022-08-10T02:24:24.369Z,1.50
2022-08-10T02:25:41.123Z,1.30
2022-08-10T02:26:25.346Z,1.40
2022-08-10T02:27:24.335Z,1.50
2022-08-10T02:28:30.975Z,1.50
2022-08-10T02:29:25.295Z,1.50
2022-08-10T02:30:24.289Z,1.50
2022-08-10T02:31:24.287Z,1.70
2022-08-10T02:32:36.179Z,1.60
2022-08-10T02:33:25.260Z,1.50
2022-08-10T02:34:24.240Z,1.50
2022-08-10T02:35:24.231Z,1.60
2022-08-10T02:36:24.239Z,1.50
2022-08-10T02:37:24.204Z,1.60
2022-08-10T02:38:59.392Z,1.70
2022-08-10T02:39:25.245Z,1.80
2022-08-10T02:45:01.110Z,1.50
2022-08-10T02:45:13.652Z,1.50
2022-08-10T02:45:17.638Z,1.80
2022-08-10T02:45:19.857Z,1.80
2022-08-10T02:45:20.126Z,1.60
2022-08-10T02:45:30.930Z,1.50
2022-08-10T02:46:26.322Z,1.60
2022-08-10T02:47:24.108Z,1.50
2022-08-10T02:48:24.081Z,1.50
2022-08-10T02:49:24.073Z,1.50
2022-08-10T02:50:24.080Z,1.60
2022-08-10T02:52:06.465Z,1.50
2022-08-10T02:52:25.074Z,1.60
2022-08-10T02:53:55.031Z,1.70
2022-08-10T02:54:25.047Z,1.60
2022-08-10T02:55:27.121Z,1.60
2022-08-10T02:56:24.984Z,1.60
2022-08-10T02:57:23.990Z,1.60
2022-08-10T02:58:23.983Z,1.90
2022-08-10T02:59:23.955Z,1.50
2022-08-10T03:00:23.951Z,1.80
2022-08-10T03:01:23.981Z,1.70
2022-08-10T03:02:23.912Z,1.60
2022-08-10T03:03:23.935Z,1.70
2022-08-10T03:04:54.076Z,1.60
2022-08-10T03:05:24.892Z,1.50
2022-08-10T03:06:23.879Z,1.70
2022-08-10T03:07:43.648Z,1.80
2022-08-10T03:08:24.872Z,1.70
2022-08-10T03:09:23.849Z,1.80
2022-08-10T03:10:23.836Z,1.60
2022-08-10T03:12:35.170Z,1.70
2022-08-10T03:12:37.293Z,1.60
2022-08-10T03:13:24.796Z,1.80
2022-08-10T03:14:23.805Z,1.70
2022-08-10T03:15:23.764Z,1.70
2022-08-10T03:16:23.755Z,1.80
2022-08-10T03:17:23.741Z,1.80
2022-08-10T03:18:23.751Z,1.70
2022-08-10T03:20:34.180Z,1.60
2022-08-10T03:20:37.119Z,1.60
2022-08-10T03:21:24.693Z,1.70
2022-08-10T03:22:23.704Z,1.70
2022-08-10T03:23:23.704Z,1.50
2022-08-10T03:24:30.402Z,1.50
2022-08-10T03:25:24.666Z,1.60
2022-08-10T03:26:23.640Z,1.60
2022-08-10T03:27:23.618Z,1.60
2022-08-10T03:28:23.617Z,1.80
2022-08-10T03:29:23.600Z,1.60
2022-08-10T03:30:32.467Z,1.60
2022-08-10T03:31:24.579Z,1.60
2022-08-10T03:32:23.578Z,1.60
2022-08-10T03:33:23.560Z,1.60
2022-08-10T03:34:32.795Z,1.60
2022-08-10T03:35:24.562Z,1.60
2022-08-10T03:36:44.088Z,1.60
2022-08-10T03:37:24.507Z,1.90
2022-08-10T03:38:23.501Z,1.60
2022-08-10T03:39:23.543Z,1.50
2022-08-10T03:40:23.507Z,1.80
2022-08-10T03:41:24.465Z,1.50
2022-08-10T03:42:23.456Z,1.80
2022-08-10T03:43:23.455Z,1.70
2022-08-10T03:44:23.439Z,1.60
2022-08-10T03:45:23.464Z,1.70
2022-08-10T03:46:23.427Z,1.70
2022-08-10T03:47:23.405Z,1.60
2022-08-10T03:48:23.382Z,1.60
2022-08-10T03:49:23.362Z,1.70
2022-08-10T03:50:45.678Z,1.60
2022-08-10T03:51:24.351Z,1.50
2022-08-10T03:52:23.342Z,1.50
2022-08-10T03:53:25.697Z,1.80
2022-08-10T03:54:24.321Z,1.60
2022-08-10T03:56:27.400Z,1.60
2022-08-10T03:56:28.951Z,1.60
2022-08-10T03:57:24.276Z,1.70
2022-08-10T03:58:23.269Z,1.80
2022-08-10T03:59:23.252Z,1.50
2022-08-10T04:00:23.242Z,1.50
2022-08-10T04:02:41.964Z,1.70
2022-08-10T04:02:44.858Z,1.80
2022-08-10T04:03:24.210Z,1.80
2022-08-10T04:04:25.367Z,1.70
2022-08-10T04:05:23.185Z,1.90
2022-08-10T04:06:24.215Z,1.70
2022-08-10T04:07:23.176Z,1.90
2022-08-10T04:08:23.155Z,1.60
2022-08-10T04:09:23.136Z,1.80
2022-08-10T04:10:23.124Z,1.60
2022-08-10T04:11:23.106Z,1.90
2022-08-10T04:12:23.114Z,1.70
2022-08-10T04:13:23.102Z,1.90
2022-08-10T04:14:49.133Z,1.90
2022-08-10T04:15:24.076Z,1.60
2022-08-10T04:16:23.054Z,1.70
2022-08-10T04:18:02.902Z,1.90
2022-08-10T04:18:24.034Z,1.70
2022-08-10T04:19:23.019Z,2.10
2022-08-10T04:20:23.019Z,2.00
2022-08-10T04:21:22.995Z,1.80
2022-08-10T04:22:23.003Z,1.80
2022-08-10T04:23:22.964Z,1.90
2022-08-10T04:24:26.841Z,1.90
2022-08-10T04:25:23.951Z,1.70
2022-08-10T04:26:22.937Z,1.70
2022-08-10T04:27:22.921Z,1.90
2022-08-10T04:28:22.932Z,1.80
2022-08-10T04:29:22.899Z,1.60
2022-08-10T04:30:22.886Z,1.90
2022-08-10T04:31:22.881Z,1.70
2022-08-10T04:32:22.859Z,1.70
2022-08-10T04:33:22.868Z,1.70
2022-08-10T04:34:22.837Z,1.70
2022-08-10T04:35:22.841Z,1.70
2022-08-10T04:36:22.821Z,1.70
2022-08-10T04:37:22.809Z,1.80
2022-08-10T04:38:22.822Z,1.60
2022-08-10T04:39:22.849Z,1.70
2022-08-10T04:40:28.445Z,1.90
2022-08-10T04:41:23.768Z,1.80
2022-08-10T04:42:22.747Z,1.70
2022-08-10T04:43:22.759Z,1.80
2022-08-10T04:44:22.737Z,1.80
2022-08-10T04:45:22.727Z,1.70
2022-08-10T04:46:42.732Z,1.80
2022-08-10T04:47:57.387Z,1.80
2022-08-10T04:48:43.039Z,1.80
2022-08-10T04:49:56.449Z,1.80
2022-08-10T04:50:23.670Z,1.80
2022-08-10T04:51:22.664Z,1.80
2022-08-10T04:52:22.655Z,1.80
2022-08-10T04:53:22.623Z,1.60
2022-08-10T04:54:22.624Z,1.80
2022-08-10T04:55:22.582Z,1.70
2022-08-10T04:56:32.094Z,1.70
2022-08-10T04:57:23.561Z,1.90
2022-08-10T04:58:22.565Z,1.70
2022-08-10T04:59:22.563Z,1.90
2022-08-10T05:00:22.542Z,1.70
2022-08-10T05:01:24.888Z,1.70
2022-08-10T05:02:38.205Z,2.10
2022-08-10T05:03:23.503Z,1.90
2022-08-10T05:04:37.031Z,1.90
2022-08-10T05:05:23.474Z,1.60
2022-08-10T05:06:22.469Z,1.70
2022-08-10T05:07:22.448Z,1.70
2022-08-10T05:08:22.465Z,2.00
2022-08-10T05:09:22.439Z,1.80
2022-08-10T05:10:22.424Z,1.80
2022-08-10T05:11:23.852Z,1.80
2022-08-10T05:12:22.391Z,1.90
2022-08-10T05:13:22.377Z,1.90
2022-08-10T05:14:22.373Z,1.80
2022-08-10T05:15:22.377Z,1.80
2022-08-10T05:16:31.856Z,1.90
2022-08-10T05:17:23.353Z,1.80
2022-08-10T05:18:22.323Z,1.60
2022-08-10T05:20:01.872Z,2.10
2022-08-10T05:20:23.318Z,2.00
2022-08-10T05:22:03.175Z,1.80
2022-08-10T05:22:23.304Z,1.80
2022-08-10T05:23:22.272Z,1.60
2022-08-10T05:24:22.267Z,1.90
2022-08-10T05:25:22.238Z,1.90
2022-08-10T05:26:22.238Z,1.80
2022-08-10T05:27:22.219Z,1.90
2022-08-10T05:28:22.215Z,1.80
2022-08-10T05:29:23.207Z,1.80
2022-08-10T05:30:22.192Z,1.70
2022-08-10T05:31:24.113Z,1.70
2022-08-10T05:32:22.166Z,1.80
2022-08-10T05:33:22.146Z,1.70
2022-08-10T05:34:22.150Z,1.80
2022-08-10T05:35:22.132Z,1.60
2022-08-10T05:36:22.151Z,1.50
2022-08-10T05:38:10.116Z,1.70
2022-08-10T05:38:23.090Z,1.90
2022-08-10T05:39:30.213Z,1.80
2022-08-10T05:40:23.079Z,1.70
2022-08-10T05:41:22.310Z,1.70
2022-08-10T05:42:22.049Z,1.70
2022-08-10T05:43:22.063Z,1.70
2022-08-10T05:44:22.031Z,1.60
2022-08-10T05:45:22.010Z,1.60
2022-08-10T05:46:22.028Z,1.60
2022-08-10T05:47:21.987Z,1.70
2022-08-10T05:48:54.415Z,1.50
2022-08-10T05:49:22.972Z,1.80
2022-08-10T05:50:21.959Z,1.50
2022-08-10T05:51:21.953Z,1.70
2022-08-10T05:52:21.926Z,1.60
2022-08-10T05:53:59.076Z,1.60
2022-08-10T05:54:22.911Z,1.60
2022-08-10T05:55:21.892Z,1.70
2022-08-10T05:56:21.893Z,1.80
2022-08-10T05:57:21.886Z,1.60
2022-08-10T05:58:21.877Z,1.70
2022-08-10T06:00:31.132Z,1.50
2022-08-10T06:00:37.244Z,1.60
2022-08-10T06:01:22.855Z,1.60
2022-08-10T06:02:41.705Z,1.70
2022-08-10T06:03:23.963Z,1.60
2022-08-10T06:04:21.785Z,1.70
2022-08-10T06:05:21.788Z,1.70
2022-08-10T06:06:24.858Z,1.60
2022-08-10T06:07:22.020Z,1.70
2022-08-10T06:08:21.755Z,1.60
2022-08-10T06:09:21.748Z,1.60
2022-08-10T06:10:31.569Z,1.60
2022-08-10T06:12:25.988Z,1.50
2022-08-10T06:12:26.869Z,1.60
2022-08-10T06:13:30.694Z,1.30
2022-08-10T06:14:22.678Z,1.60
2022-08-10T06:15:51.373Z,1.50
2022-08-10T06:16:22.649Z,1.80
2022-08-10T06:17:21.649Z,1.80
2022-08-10T06:18:21.647Z,1.70
2022-08-10T06:19:21.615Z,1.70
2022-08-10T06:20:21.622Z,1.60
2022-08-10T06:21:21.587Z,1.40
2022-08-10T06:22:21.588Z,1.60
2022-08-10T06:23:21.580Z,1.50
2022-08-10T06:24:21.581Z,1.50
2022-08-10T06:26:08.504Z,1.50
2022-08-10T06:26:22.540Z,1.60
2022-08-10T06:27:21.530Z,1.50
2022-08-10T06:28:22.540Z,1.50
2022-08-10T06:29:21.510Z,1.60
2022-08-10T06:30:21.507Z,1.50
2022-08-10T06:31:21.483Z,1.50
2022-08-10T06:32:21.496Z,1.50
2022-08-10T06:33:21.460Z,1.60
2022-08-10T06:34:21.462Z,1.60
2022-08-10T06:35:21.437Z,1.60
2022-08-10T06:36:21.429Z,1.50
2022-08-10T06:37:21.413Z,1.60
2022-08-10T06:38:21.466Z,1.60
2022-08-10T06:39:37.148Z,1.60
2022-08-10T06:40:22.426Z,1.30
2022-08-10T06:41:21.375Z,1.60
2022-08-10T06:42:22.359Z,1.90
2022-08-10T06:43:21.359Z,1.80
2022-08-10T06:44:21.331Z,1.50
2022-08-10T06:45:21.344Z,1.50
2022-08-10T06:46:21.311Z,1.30
2022-08-10T06:47:22.949Z,1.50
2022-08-10T06:48:21.286Z,1.40
2022-08-10T06:49:21.289Z,1.60
2022-08-10T06:50:44.822Z,1.30
2022-08-10T06:51:22.258Z,1.40
2022-08-10T06:52:21.255Z,1.50
2022-08-10T06:53:21.277Z,1.70
2022-08-10T06:54:21.253Z,1.50
2022-08-10T06:55:21.229Z,1.20
2022-08-10T06:56:38.230Z,1.50
2022-08-10T06:57:22.200Z,1.70
2022-08-10T06:58:21.179Z,1.60
2022-08-10T06:59:22.818Z,1.40
2022-08-10T07:00:21.169Z,1.40
2022-08-10T07:01:21.233Z,1.50
2022-08-10T07:02:21.128Z,1.40
2022-08-10T07:03:21.112Z,1.70
2022-08-10T07:04:31.963Z,1.30
2022-08-10T07:05:22.097Z,1.50
2022-08-10T07:06:21.113Z,1.40
2022-08-10T07:07:21.087Z,1.40
2022-08-10T07:08:21.063Z,1.40
2022-08-10T07:09:21.051Z,1.60
2022-08-10T07:10:21.032Z,1.40
2022-08-10T07:11:21.050Z,1.40
2022-08-10T07:12:21.011Z,1.50
2022-08-10T07:14:16.647Z,1.60
2022-08-10T07:14:21.992Z,1.20
2022-08-10T07:15:20.983Z,1.40
2022-08-10T07:16:20.975Z,1.40
2022-08-10T07:17:20.973Z,1.40
2022-08-10T07:18:20.945Z,1.30
2022-08-10T07:19:20.935Z,1.50
2022-08-10T07:20:20.928Z,1.40
2022-08-10T07:21:20.915Z,1.30
2022-08-10T07:23:11.094Z,1.40
2022-08-10T07:23:57.344Z,1.30
2022-08-10T07:24:21.886Z,1.40
2022-08-10T07:25:20.885Z,1.40
2022-08-10T07:26:20.855Z,1.30
2022-08-10T07:27:20.887Z,1.30
2022-08-10T07:28:20.845Z,1.40
2022-08-10T07:29:26.643Z,1.30
2022-08-10T07:30:21.925Z,1.30
2022-08-10T07:31:34.022Z,1.40
2022-08-10T07:32:21.825Z,1.50
2022-08-10T07:33:20.787Z,1.30
2022-08-10T07:34:28.726Z,1.40
2022-08-10T07:35:21.758Z,1.40
2022-08-10T07:36:20.743Z,1.40
2022-08-10T07:37:20.752Z,1.40
2022-08-10T07:38:20.742Z,1.50
2022-08-10T07:40:02.552Z,1.20
2022-08-10T07:40:21.798Z,1.30
2022-08-10T07:41:20.690Z,1.30
2022-08-10T07:42:20.701Z,1.50
2022-08-10T07:43:20.659Z,1.40
2022-08-10T07:44:20.650Z,1.30
2022-08-10T07:45:20.656Z,1.30
2022-08-10T07:46:20.902Z,1.30
2022-08-10T07:47:53.370Z,1.50
2022-08-10T07:48:21.652Z,1.30
2022-08-10T07:49:20.603Z,1.40
2022-08-10T07:50:20.619Z,1.40
2022-08-10T07:51:20.564Z,1.30
2022-08-10T07:52:20.558Z,1.40
2022-08-10T07:53:20.567Z,1.40
2022-08-10T07:54:20.535Z,1.40
2022-08-10T07:56:02.216Z,1.20
2022-08-10T07:56:47.385Z,1.30
2022-08-10T07:57:31.428Z,1.10
2022-08-10T07:58:21.508Z,1.20
2022-08-10T07:59:20.485Z,1.40
2022-08-10T08:00:20.596Z,1.20
2022-08-10T08:01:20.508Z,1.30
2022-08-10T08:02:20.459Z,1.40
2022-08-10T08:03:20.474Z,1.30
2022-08-10T08:04:20.433Z,1.20
2022-08-10T08:05:57.632Z,1.30
2022-08-10T08:06:21.439Z,1.30
2022-08-10T08:07:21.502Z,1.30
2022-08-10T08:08:20.408Z,1.30
2022-08-10T08:09:20.370Z,1.30
2022-08-10T08:10:20.353Z,1.40
2022-08-10T08:11:26.094Z,1.20
2022-08-10T08:12:21.319Z,1.30
2022-08-10T08:13:20.349Z,1.20
2022-08-10T08:14:20.334Z,1.30
2022-08-10T08:16:17.291Z,1.30
2022-08-10T08:16:22.197Z,1.40
2022-08-10T08:17:20.279Z,1.50
2022-08-10T08:18:24.883Z,1.50
2022-08-10T08:19:28.037Z,1.40
2022-08-10T08:20:21.259Z,1.30
2022-08-10T08:24:07.518Z,1.40
2022-08-10T08:24:08.955Z,1.20
2022-08-10T08:24:10.784Z,1.40
2022-08-10T08:24:32.676Z,1.40
2022-08-10T08:25:21.194Z,1.20
2022-08-10T08:26:20.185Z,1.20
2022-08-10T08:27:20.167Z,1.20
2022-08-10T08:28:20.143Z,1.20
2022-08-10T08:29:20.154Z,1.30
2022-08-10T08:30:27.127Z,1.40
2022-08-10T08:31:21.117Z,1.10
2022-08-10T08:32:20.129Z,1.30
2022-08-10T08:33:42.319Z,1.00
2022-08-10T08:34:21.089Z,1.40
2022-08-10T08:35:20.127Z,1.30
2022-08-10T08:36:20.129Z,1.30
2022-08-10T08:38:30.217Z,1.20
2022-08-10T08:38:32.171Z,1.40
2022-08-10T08:39:21.064Z,1.20
2022-08-10T08:40:20.031Z,1.40
2022-08-10T08:41:20.017Z,1.20
2022-08-10T08:42:20.001Z,1.10
2022-08-10T08:43:21.512Z,1.10
2022-08-10T08:44:19.972Z,1.20
2022-08-10T08:45:19.963Z,1.20
2022-08-10T08:46:19.965Z,1.30
2022-08-10T08:48:02.227Z,1.40
2022-08-10T08:48:20.919Z,1.20
2022-08-10T08:50:04.722Z,1.10
2022-08-10T08:50:20.950Z,1.20
2022-08-10T08:52:07.063Z,1.30
2022-08-10T08:52:20.941Z,1.20
2022-08-10T08:53:22.205Z,1.10
2022-08-10T08:54:19.856Z,1.20
2022-08-10T08:56:04.768Z,1.10
2022-08-10T08:56:20.829Z,1.10
2022-08-10T08:57:47.294Z,1.10
2022-08-10T08:58:20.829Z,1.30
2022-08-10T08:59:19.821Z,1.10
2022-08-10T09:00:19.796Z,1.00
2022-08-10T09:01:19.849Z,1.20
2022-08-10T09:02:19.781Z,1.10
2022-08-10T09:03:19.775Z,1.40
2022-08-10T09:04:22.132Z,1.30
2022-08-10T09:05:19.774Z,1.20
2022-08-10T09:06:19.731Z,1.30
2022-08-10T09:07:58.995Z,1.10
2022-08-10T09:08:20.719Z,1.10
2022-08-10T09:09:19.704Z,1.20
2022-08-10T09:10:19.722Z,1.00
2022-08-10T09:11:19.667Z,1.20
2022-08-10T09:12:19.646Z,1.30
2022-08-10T09:13:19.640Z,1.30
2022-08-10T09:14:25.374Z,1.10
2022-08-10T09:15:40.448Z,1.20
2022-08-10T09:16:20.634Z,1.40
2022-08-10T09:17:19.612Z,1.10
2022-08-10T09:18:19.592Z,1.10
2022-08-10T09:19:35.170Z,1.00
2022-08-10T09:20:20.560Z,1.10
2022-08-10T09:21:19.608Z,1.20
2022-08-10T09:22:19.606Z,1.10
2022-08-10T09:23:19.531Z,1.10
2022-08-10T09:24:20.425Z,1.00
2022-08-10T09:25:19.519Z,1.10
2022-08-10T09:26:19.512Z,1.20
2022-08-10T09:27:19.485Z,1.10
2022-08-10T09:28:19.494Z,1.10
2022-08-10T09:29:19.467Z,1.10
2022-08-10T09:30:19.448Z,1.00
2022-08-10T09:31:23.092Z,1.00
2022-08-10T09:35:40.072Z,1.10
2022-08-10T09:36:20.386Z,1.20
2022-08-10T09:36:24.245Z,1.00
2022-08-10T09:36:27.002Z,1.10
2022-08-10T09:36:32.874Z,1.20
2022-08-10T09:37:20.406Z,1.10
2022-08-10T09:38:19.356Z,1.00
2022-08-10T09:40:12.610Z,1.00
2022-08-10T09:41:00.766Z,0.80
2022-08-10T09:41:20.362Z,0.90
2022-08-10T09:42:19.338Z,0.90
2022-08-10T09:43:25.778Z,0.80
2022-08-10T09:44:20.298Z,0.80
2022-08-10T09:45:19.317Z,0.90
2022-08-10T09:46:19.270Z,0.80
2022-08-10T09:47:19.270Z,0.70
2022-08-10T09:48:19.263Z,0.80
2022-08-10T09:49:22.210Z,0.80
2022-08-10T09:50:20.218Z,0.90
2022-08-10T09:52:20.326Z,0.80
2022-08-10T09:53:19.205Z,0.90
2022-08-10T09:54:19.180Z,0.90
2022-08-10T09:55:19.180Z,0.70
2022-08-10T09:56:21.488Z,0.90
2022-08-10T09:57:44.467Z,0.90
2022-08-10T09:58:20.164Z,0.70
2022-08-10T09:59:59.579Z,0.80
2022-08-10T10:00:20.122Z,0.70
2022-08-10T10:01:58.225Z,0.90
2022-08-10T10:02:20.089Z,0.90
2022-08-10T10:03:23.997Z,0.90
2022-08-10T10:04:20.090Z,0.70
2022-08-10T10:05:19.063Z,0.80
2022-08-10T10:06:19.058Z,0.60
2022-08-10T10:07:19.042Z,0.70
2022-08-10T10:08:19.043Z,0.70
2022-08-10T10:09:19.015Z,0.60
2022-08-10T10:10:20.006Z,0.70
2022-08-10T10:11:19.007Z,0.90
2022-08-10T10:12:18.988Z,0.70
2022-08-10T10:13:18.975Z,0.80
2022-08-10T10:14:19.978Z,0.70
2022-08-10T10:15:25.261Z,0.70
2022-08-10T10:16:19.948Z,0.70
2022-08-10T10:17:18.925Z,0.80
2022-08-10T10:18:18.936Z,0.80
2022-08-10T10:19:18.919Z,0.90
2022-08-10T10:20:18.889Z,0.70
2022-08-10T10:21:23.887Z,0.70
2022-08-10T10:22:19.875Z,0.90
2022-08-10T10:23:18.875Z,0.80
2022-08-10T10:24:21.051Z,0.70
2022-08-10T10:25:20.647Z,0.70
2022-08-10T10:26:19.033Z,0.90
2022-08-10T10:27:18.823Z,0.70
2022-08-10T10:28:18.802Z,0.70
2022-08-10T10:29:55.783Z,0.70
2022-08-10T10:30:19.790Z,0.80
2022-08-10T10:31:18.773Z,0.70
2022-08-10T10:32:18.752Z,0.90
2022-08-10T10:33:18.743Z,0.70
2022-08-10T10:34:18.751Z,0.70
2022-08-10T10:35:18.742Z,0.80
2022-08-10T10:36:18.722Z,0.60
2022-08-10T10:37:18.698Z,0.60
2022-08-10T10:38:18.693Z,0.70
2022-08-10T10:39:23.796Z,0.60
2022-08-10T10:40:19.693Z,0.80
2022-08-10T10:41:18.654Z,0.70
2022-08-10T10:42:42.460Z,0.70
2022-08-10T10:43:19.627Z,0.70
2022-08-10T10:44:18.635Z,0.80
2022-08-10T10:45:18.616Z,0.70
2022-08-10T10:46:23.311Z,0.70
2022-08-10T10:47:18.595Z,0.60
2022-08-10T10:48:24.270Z,0.70
2022-08-10T10:49:19.567Z,0.80
2022-08-10T10:50:18.556Z,0.70
2022-08-10T10:51:18.553Z,0.90
2022-08-10T10:52:18.567Z,0.80
2022-08-10T10:53:18.519Z,0.80
2022-08-10T10:54:18.517Z,0.90
2022-08-10T10:55:18.504Z,0.80
2022-08-10T10:56:18.480Z,0.80
2022-08-10T10:57:18.493Z,1.00
2022-08-10T10:58:20.409Z,0.90
2022-08-10T10:59:53.891Z,0.70
2022-08-10T11:00:19.455Z,0.90
2022-08-10T11:01:18.470Z,0.70
2022-08-10T11:02:18.440Z,0.70
2022-08-10T11:03:18.440Z,0.80
2022-08-10T11:04:18.412Z,0.60
2022-08-10T11:05:18.404Z,0.80
2022-08-10T11:06:18.403Z,0.70
2022-08-10T11:07:21.868Z,0.70
2022-08-10T11:08:19.389Z,0.70
2022-08-10T11:10:06.014Z,0.70
2022-08-10T11:10:32.779Z,0.80
2022-08-10T11:12:00.373Z,0.80
2022-08-10T11:12:19.681Z,0.70
2022-08-10T11:14:26.144Z,0.90
2022-08-10T11:14:26.589Z,0.70
2022-08-10T11:15:19.285Z,0.80
2022-08-10T11:16:18.264Z,0.80
2022-08-10T11:17:18.245Z,1.00
2022-08-10T11:18:18.236Z,0.80
2022-08-10T11:19:18.249Z,0.80
2022-08-10T11:20:18.236Z,0.80
2022-08-10T11:21:18.205Z,0.70
2022-08-10T11:22:18.216Z,0.80
2022-08-10T11:23:18.187Z,0.80
2022-08-10T11:24:42.958Z,0.70
2022-08-10T11:25:19.217Z,0.70
2022-08-10T11:26:18.167Z,0.90
2022-08-10T11:27:21.791Z,0.70
2022-08-10T11:28:18.128Z,0.70
2022-08-10T11:29:18.105Z,0.90
2022-08-10T11:30:18.108Z,0.70
2022-08-10T11:31:18.134Z,0.70
2022-08-10T11:32:20.588Z,0.70
2022-08-10T11:33:32.642Z,0.80
2022-08-10T11:34:48.699Z,0.90
2022-08-10T11:35:19.043Z,0.70
2022-08-10T11:36:18.099Z,0.60
2022-08-10T11:37:18.023Z,0.80
2022-08-10T11:38:32.669Z,0.80
2022-08-10T11:39:19.105Z,0.80
2022-08-10T11:40:17.998Z,0.90
2022-08-10T11:42:08.736Z,0.80
2022-08-10T11:42:31.447Z,0.80
2022-08-10T11:43:18.952Z,0.90
2022-08-10T11:44:17.953Z,0.80
2022-08-10T11:45:17.936Z,1.00
2022-08-10T11:46:28.050Z,0.80
2022-08-10T11:47:18.922Z,1.00
2022-08-10T11:48:53.953Z,0.80
2022-08-10T11:49:18.883Z,0.90
2022-08-10T11:50:17.874Z,0.80
2022-08-10T11:51:17.861Z,0.90
2022-08-10T11:52:17.870Z,1.00
2022-08-10T11:53:17.841Z,0.80
2022-08-10T11:54:17.829Z,0.90
2022-08-10T11:55:17.824Z,0.70
2022-08-10T11:56:17.804Z,0.80
2022-08-10T11:57:17.806Z,0.70
2022-08-10T11:58:17.786Z,0.90
2022-08-10T11:59:17.792Z,0.80
2022-08-10T12:00:17.779Z,0.70
2022-08-10T12:01:17.748Z,0.80
2022-08-10T12:02:17.794Z,1.00
2022-08-10T12:03:18.698Z,0.80
2022-08-10T12:04:17.779Z,0.90
2022-08-10T12:05:17.710Z,0.90
2022-08-10T12:06:33.659Z,0.80
2022-08-10T12:10:02.424Z,0.90
2022-08-10T12:10:06.566Z,0.80
2022-08-10T12:10:09.366Z,0.90
2022-08-10T12:10:18.650Z,0.70
2022-08-10T12:11:23.963Z,0.90
2022-08-10T12:12:18.637Z,0.90
2022-08-10T12:13:17.638Z,0.80
2022-08-10T12:14:21.821Z,0.80
2022-08-10T12:15:18.590Z,0.80
2022-08-10T12:16:17.603Z,0.80
2022-08-10T12:17:17.589Z,0.90
2022-08-10T12:18:17.579Z,1.00
2022-08-10T12:19:17.566Z,1.00
2022-08-10T12:20:17.579Z,0.90
2022-08-10T12:21:21.662Z,0.90
2022-08-10T12:22:17.547Z,0.90
2022-08-10T12:23:17.503Z,0.90
2022-08-10T12:24:17.506Z,0.80
2022-08-10T12:25:49.584Z,0.70
2022-08-10T12:26:18.495Z,0.90
2022-08-10T12:27:17.473Z,0.70
2022-08-10T12:28:17.462Z,0.80
2022-08-10T12:29:17.436Z,0.60
2022-08-10T12:30:17.454Z,0.90
2022-08-10T12:31:17.412Z,0.70
2022-08-10T12:32:17.540Z,1.00
2022-08-10T12:33:18.388Z,0.80
2022-08-10T12:34:17.405Z,0.80
2022-08-10T12:35:22.062Z,0.90
2022-08-10T12:36:18.885Z,0.80
2022-08-10T12:37:17.394Z,0.70
2022-08-10T12:38:17.367Z,0.80
2022-08-10T12:39:17.392Z,0.90
2022-08-10T12:40:34.664Z,0.80
2022-08-10T12:41:18.318Z,0.80
2022-08-10T12:42:27.692Z,0.70
2022-08-10T12:44:04.219Z,0.70
2022-08-10T12:44:18.290Z,0.60
2022-08-10T12:45:17.274Z,0.70
2022-08-10T12:46:17.300Z,0.70
2022-08-10T12:47:17.246Z,0.70
2022-08-10T12:48:17.232Z,0.80
2022-08-10T12:49:17.241Z,0.90
2022-08-10T12:50:30.580Z,0.70
2022-08-10T12:51:18.231Z,0.80
2022-08-10T12:52:17.193Z,0.70
2022-08-10T12:53:17.173Z,0.80
2022-08-10T12:54:17.164Z,0.80
2022-08-10T12:55:18.155Z,0.70
2022-08-10T12:56:17.163Z,0.90
2022-08-10T12:57:17.148Z,0.90
2022-08-10T12:58:58.356Z,0.70
2022-08-10T12:59:18.098Z,0.80
2022-08-10T13:00:17.527Z,0.70
2022-08-10T13:01:17.689Z,0.70
2022-08-10T13:02:17.147Z,0.80
2022-08-10T13:03:17.056Z,0.80
2022-08-10T13:04:21.395Z,0.90
2022-08-10T13:05:18.038Z,0.70
2022-08-10T13:06:17.042Z,0.80
2022-08-10T13:08:26.033Z,0.80
2022-08-10T13:08:27.358Z,0.90
2022-08-10T13:09:17.990Z,0.80
2022-08-10T13:10:16.978Z,0.70
2022-08-10T13:12:33.840Z,0.60
2022-08-10T13:12:35.494Z,0.80
2022-08-10T13:13:17.959Z,1.10
2022-08-10T13:14:19.675Z,1.00
2022-08-10T13:15:45.867Z,0.70
2022-08-10T13:16:17.930Z,0.70
2022-08-10T13:17:21.014Z,0.70
2022-08-10T13:18:17.791Z,0.70
2022-08-10T13:19:16.887Z,0.80